Little Valley, Nevada Weather observations

Data are for 10 minute period ending at time listed.
 Day   Time    Ave.   Ave.  Ave.  Vector   Max.   Total    Solar   
  of    of     Air    Rel.  Wind   Wind    Wind  Precip.   Rad.    
Year   Day     Temp.  Hum.  Speed  Dir.    Gust                    
2015   (PST)    F      %     mph   deg.    mph     in.     W/m2    
------------------------------------------------------------------- 
 211   16:00   87.0    11    4.0    84     13.0   14.16     660  
 211   17:00   85.0    11    4.0   130     12.0   14.16     459  
 211   18:00   80.0    23    2.0   239      6.0   14.16     206  
 211   19:00   72.0    40    1.0   199      3.0   14.16      88  
 211   20:00   63.0    47    0.0   139      4.0   14.16      18  
 211   21:00   58.0    50    0.0   196      3.0   14.16       0  
 211   22:00   56.0    53    0.0    14      4.0   14.16       0  
 211   23:00   54.0    59    1.0   208      4.0   14.16       0  
 212    0:00   51.0    67    1.0   216      3.0   14.16       0  
 212    1:00   48.0    70    0.0   316      4.0   14.16       0  
 212    2:00   46.0    73    0.0   219      3.0   14.16       0  
 212    3:00   46.0    72    0.0   151      2.0   14.16       0  
 212    4:00   47.0    69    0.0   168      1.0   14.16       0  
 212    5:00   49.0    69    1.0   201      2.0   14.16       0  
 212    6:00   50.0    69    0.0   213      2.0   14.16       8  
 212    7:00   59.0    57    4.0   158      6.0   14.16      67  
 212    8:00   65.0    61    2.0   270      5.0   14.16     142  
 212    9:00   68.0    52    3.0   152    999.0   14.16     999  
 212   10:00   80.0    23    6.0    71     11.0   14.16     617  
 212   11:00   80.0    19    4.0    42     10.0   14.16     592  
 212   12:00   78.0    22    2.0    89     11.0   14.16     321  
 212   13:00   75.0    29    3.0   184     13.0   14.16     170  
 212   14:00   76.0    25    3.0    88     23.0   14.16     201  
 212   15:00   81.0    19    6.0    64     13.0   14.16     697  

Return to Little Valley, Nevada graphs page.


Western Regional Climate Center,wrcc@dri.edu